createdAt,value
2023-03-11T00:00:09.958Z,1.07
2023-03-11T00:01:09.955Z,1.07
2023-03-11T00:02:09.946Z,1.07
2023-03-11T00:03:09.916Z,1.07
2023-03-11T00:04:09.908Z,1.08
2023-03-11T00:05:09.978Z,1.08
2023-03-11T00:06:09.870Z,1.08
2023-03-11T00:07:09.871Z,1.07
2023-03-11T00:08:09.884Z,1.07
2023-03-11T00:09:09.871Z,1.06
2023-03-11T00:10:09.832Z,1.05
2023-03-11T00:11:09.851Z,1.05
2023-03-11T00:12:09.802Z,1.04
2023-03-11T00:13:09.800Z,1.03
2023-03-11T00:14:09.789Z,1.02
2023-03-11T00:15:09.774Z,1.02
2023-03-11T00:16:09.850Z,1.01
2023-03-11T00:17:09.773Z,1.00
2023-03-11T00:18:09.748Z,0.99
2023-03-11T00:19:09.715Z,0.97
2023-03-11T00:20:09.701Z,0.97
2023-03-11T00:21:09.682Z,0.97
2023-03-11T00:22:09.691Z,0.98
2023-03-11T00:23:09.706Z,0.98
2023-03-11T00:24:09.668Z,0.98
2023-03-11T00:25:09.645Z,0.97
2023-03-11T00:26:09.627Z,0.97
2023-03-11T00:27:09.618Z,0.96
2023-03-11T00:28:09.607Z,0.96
2023-03-11T00:29:09.611Z,0.95
2023-03-11T00:30:09.574Z,0.95
2023-03-11T00:31:09.597Z,0.94
2023-03-11T00:32:09.564Z,0.93
2023-03-11T00:33:09.551Z,0.92
2023-03-11T00:34:11.154Z,0.91
2023-03-11T00:35:09.571Z,0.90
2023-03-11T00:36:09.528Z,0.90
2023-03-11T00:37:09.479Z,0.90
2023-03-11T00:38:09.470Z,0.91
2023-03-11T00:39:09.458Z,0.91
2023-03-11T00:40:09.453Z,0.91
2023-03-11T00:41:09.468Z,0.91
2023-03-11T00:42:09.418Z,0.92
2023-03-11T00:43:09.415Z,0.93
2023-03-11T00:44:09.399Z,0.93
2023-03-11T00:45:09.389Z,0.94
2023-03-11T00:46:09.460Z,0.94
2023-03-11T00:47:09.408Z,0.94
2023-03-11T00:48:09.342Z,0.93
2023-03-11T00:49:09.342Z,0.93
2023-03-11T00:50:09.312Z,0.93
2023-03-11T00:51:09.309Z,0.92
2023-03-11T00:52:09.293Z,0.92
2023-03-11T00:53:09.309Z,0.91
2023-03-11T00:54:09.281Z,0.90
2023-03-11T00:55:09.275Z,0.90
2023-03-11T00:56:09.247Z,0.89
2023-03-11T00:57:09.226Z,0.89
2023-03-11T00:58:09.217Z,0.89
2023-03-11T00:59:09.240Z,0.89
2023-03-11T01:00:09.189Z,0.88
2023-03-11T01:01:09.224Z,0.88
2023-03-11T01:02:09.180Z,0.87
2023-03-11T01:03:09.172Z,0.86
2023-03-11T01:04:09.172Z,0.86
2023-03-11T01:05:09.157Z,0.85
2023-03-11T01:06:09.127Z,0.85
2023-03-11T01:07:11.370Z,0.85
2023-03-11T01:08:09.095Z,0.85
2023-03-11T01:09:09.103Z,0.85
2023-03-11T01:10:09.065Z,0.85
2023-03-11T01:11:09.085Z,0.85
2023-03-11T01:12:09.039Z,0.85
2023-03-11T01:13:09.041Z,0.84
2023-03-11T01:14:09.028Z,0.84
2023-03-11T01:15:09.009Z,0.84
2023-03-11T01:16:09.100Z,0.83
2023-03-11T01:17:09.026Z,0.83
2023-03-11T01:18:08.971Z,0.82
2023-03-11T01:19:08.955Z,0.82
2023-03-11T01:20:08.948Z,0.82
2023-03-11T01:21:08.934Z,0.82
2023-03-11T01:22:08.918Z,0.82
2023-03-11T01:23:08.941Z,0.82
2023-03-11T01:24:08.889Z,0.81
2023-03-11T01:25:08.882Z,0.80
2023-03-11T01:26:08.875Z,0.79
2023-03-11T01:27:08.858Z,0.77
2023-03-11T01:28:08.838Z,0.76
2023-03-11T01:29:08.853Z,0.75
2023-03-11T01:30:08.824Z,0.74
2023-03-11T01:31:08.861Z,0.73
2023-03-11T01:32:08.787Z,0.73
2023-03-11T01:33:08.779Z,0.72
2023-03-11T01:34:08.770Z,0.72
2023-03-11T01:35:08.786Z,0.72
2023-03-11T01:36:08.832Z,0.71
2023-03-11T01:37:08.735Z,0.71
2023-03-11T01:38:08.728Z,0.70
2023-03-11T01:39:08.695Z,0.70
2023-03-11T01:40:08.687Z,0.70
2023-03-11T01:41:08.707Z,0.71
2023-03-11T01:42:08.679Z,0.71
2023-03-11T01:43:08.653Z,0.71
2023-03-11T01:44:08.636Z,0.70
2023-03-11T01:45:08.626Z,0.70
2023-03-11T01:46:08.679Z,0.70
2023-03-11T01:47:08.661Z,0.70
2023-03-11T01:48:08.593Z,0.69
2023-03-11T01:49:08.575Z,0.69
2023-03-11T01:50:08.561Z,0.68
2023-03-11T01:51:08.551Z,0.68
2023-03-11T01:52:08.539Z,0.68
2023-03-11T01:53:08.576Z,0.67
2023-03-11T01:54:08.535Z,0.67
2023-03-11T01:55:08.504Z,0.67
2023-03-11T01:56:08.481Z,0.67
2023-03-11T01:57:08.481Z,0.67
2023-03-11T01:58:08.462Z,0.66
2023-03-11T01:59:08.470Z,0.65
2023-03-11T02:00:08.552Z,0.64
2023-03-11T02:01:14.890Z,0.63
2023-03-11T02:02:08.472Z,0.63
2023-03-11T02:03:08.541Z,0.62
2023-03-11T02:04:08.399Z,0.62
2023-03-11T02:05:08.427Z,0.62
2023-03-11T02:06:08.361Z,0.61
2023-03-11T02:07:08.354Z,0.61
2023-03-11T02:08:08.338Z,0.60
2023-03-11T02:09:08.329Z,0.60
2023-03-11T02:10:08.321Z,0.59
2023-03-11T02:11:08.362Z,0.59
2023-03-11T02:12:08.300Z,0.59
2023-03-11T02:13:08.268Z,0.58
2023-03-11T02:14:08.294Z,0.57
2023-03-11T02:15:08.256Z,0.57
2023-03-11T02:16:08.362Z,0.56
2023-03-11T02:17:08.272Z,0.55
2023-03-11T02:18:08.236Z,0.55
2023-03-11T02:19:08.229Z,0.54
2023-03-11T02:20:08.201Z,0.54
2023-03-11T02:21:08.224Z,0.53
2023-03-11T02:22:08.190Z,0.53
2023-03-11T02:23:08.212Z,0.53
2023-03-11T02:24:08.167Z,0.53
2023-03-11T02:25:08.144Z,0.53
2023-03-11T02:26:08.125Z,0.52
2023-03-11T02:27:08.122Z,0.52
2023-03-11T02:28:08.127Z,0.51
2023-03-11T02:29:08.119Z,0.50
2023-03-11T02:30:08.068Z,0.50
2023-03-11T02:31:08.150Z,0.49
2023-03-11T02:32:08.074Z,0.49
2023-03-11T02:33:08.037Z,0.48
2023-03-11T02:34:08.025Z,0.48
2023-03-11T02:35:08.061Z,0.48
2023-03-11T02:36:08.139Z,0.48
2023-03-11T02:37:07.980Z,0.49
2023-03-11T02:38:08.023Z,0.49
2023-03-11T02:39:07.988Z,0.49
2023-03-11T02:40:07.954Z,0.49
2023-03-11T02:41:07.976Z,0.49
2023-03-11T02:42:07.927Z,0.49
2023-03-11T02:43:07.965Z,0.49
2023-03-11T02:44:07.905Z,0.49
2023-03-11T02:45:07.892Z,0.49
2023-03-11T02:46:07.862Z,0.49
2023-03-11T02:47:07.903Z,0.49
2023-03-11T02:48:07.854Z,0.49
2023-03-11T02:49:07.866Z,0.49
2023-03-11T02:50:07.842Z,0.49
2023-03-11T02:51:07.821Z,0.48
2023-03-11T02:52:07.805Z,0.48
2023-03-11T02:53:07.845Z,0.48
2023-03-11T02:54:07.778Z,0.47
2023-03-11T02:55:07.768Z,0.47
2023-03-11T02:56:07.772Z,0.47
2023-03-11T02:57:07.739Z,0.46
2023-03-11T02:58:07.743Z,0.46
2023-03-11T02:59:07.762Z,0.46
2023-03-11T03:00:07.686Z,0.45
2023-03-11T03:01:07.712Z,0.45
2023-03-11T03:02:07.699Z,0.45
2023-03-11T03:03:07.671Z,0.45
2023-03-11T03:04:07.836Z,0.45
2023-03-11T03:05:07.664Z,0.45
2023-03-11T03:06:07.612Z,0.45
2023-03-11T03:07:07.600Z,0.45
2023-03-11T03:08:07.596Z,0.45
2023-03-11T03:09:07.684Z,0.45
2023-03-11T03:10:07.604Z,0.44
2023-03-11T03:11:07.647Z,0.44
2023-03-11T03:12:07.568Z,0.43
2023-03-11T03:13:07.528Z,0.42
2023-03-11T03:14:07.516Z,0.41
2023-03-11T03:15:07.525Z,0.40
2023-03-11T03:16:07.530Z,0.39
2023-03-11T03:17:07.571Z,0.39
2023-03-11T03:18:07.479Z,0.38
2023-03-11T03:19:07.455Z,0.38
2023-03-11T03:20:07.464Z,0.38
2023-03-11T03:21:07.433Z,0.37
2023-03-11T03:22:07.420Z,0.37
2023-03-11T03:23:07.440Z,0.36
2023-03-11T03:24:07.421Z,0.36
2023-03-11T03:25:07.389Z,0.35
2023-03-11T03:26:07.372Z,0.35
2023-03-11T03:27:07.361Z,0.34
2023-03-11T03:28:07.348Z,0.33
2023-03-11T03:29:07.359Z,0.32
2023-03-11T03:30:07.336Z,0.32
2023-03-11T03:31:07.304Z,0.31
2023-03-11T03:32:07.351Z,0.30
2023-03-11T03:33:07.319Z,0.29
2023-03-11T03:34:07.285Z,0.29
2023-03-11T03:35:07.291Z,0.28
2023-03-11T03:36:07.346Z,0.27
2023-03-11T03:37:07.255Z,0.27
2023-03-11T03:38:07.225Z,0.26
2023-03-11T03:39:07.236Z,0.26
2023-03-11T03:40:07.204Z,0.26
2023-03-11T03:41:07.247Z,0.26
2023-03-11T03:42:07.218Z,0.26
2023-03-11T03:43:07.153Z,0.26
2023-03-11T03:44:07.159Z,0.25
2023-03-11T03:45:07.177Z,0.25
2023-03-11T03:46:07.223Z,0.24
2023-03-11T03:47:07.143Z,0.23
2023-03-11T03:48:07.096Z,0.23
2023-03-11T03:49:07.109Z,0.22
2023-03-11T03:50:07.088Z,0.22
2023-03-11T03:51:07.079Z,0.21
2023-03-11T03:52:07.044Z,0.20
2023-03-11T03:53:07.055Z,0.20
2023-03-11T03:54:07.036Z,0.19
2023-03-11T03:55:07.094Z,0.19
2023-03-11T03:56:07.009Z,0.18
2023-03-11T03:57:06.997Z,0.18
2023-03-11T03:58:06.976Z,0.17
2023-03-11T03:59:06.999Z,0.17
2023-03-11T04:00:06.967Z,0.17
2023-03-11T04:01:06.948Z,0.17
2023-03-11T04:02:06.953Z,0.17
2023-03-11T04:03:06.996Z,0.17
2023-03-11T04:04:06.903Z,0.18
2023-03-11T04:05:06.928Z,0.18
2023-03-11T04:06:06.877Z,0.18
2023-03-11T04:07:06.875Z,0.18
2023-03-11T04:08:06.863Z,0.18
2023-03-11T04:09:06.838Z,0.17
2023-03-11T04:10:06.863Z,0.17
2023-03-11T04:11:06.850Z,0.16
2023-03-11T04:12:06.830Z,0.16
2023-03-11T04:13:06.794Z,0.15
2023-03-11T04:14:06.786Z,0.14
2023-03-11T04:15:06.795Z,0.13
2023-03-11T04:16:06.786Z,0.12
2023-03-11T04:17:06.818Z,0.12
2023-03-11T04:18:06.723Z,0.11
2023-03-11T04:19:06.750Z,0.11
2023-03-11T04:20:06.724Z,0.10
2023-03-11T04:21:06.744Z,0.10
2023-03-11T04:22:06.673Z,0.09
2023-03-11T04:23:06.702Z,0.08
2023-03-11T04:24:06.651Z,0.08
2023-03-11T04:25:06.675Z,0.08
2023-03-11T04:26:06.627Z,0.08
2023-03-11T04:27:06.606Z,0.07
2023-03-11T04:28:06.603Z,0.06
2023-03-11T04:29:06.634Z,0.04
2023-03-11T04:30:06.587Z,0.03
2023-03-11T04:31:06.683Z,0.02
2023-03-11T04:32:06.548Z,0.01
2023-03-11T04:33:06.556Z,-0.01
2023-03-11T04:34:06.528Z,-0.02
2023-03-11T04:35:06.677Z,-0.04
2023-03-11T04:36:06.543Z,-0.05
2023-03-11T04:37:06.512Z,-0.07
2023-03-11T04:38:06.470Z,-0.08
2023-03-11T04:39:06.482Z,-0.09
2023-03-11T04:40:06.440Z,-0.10
2023-03-11T04:41:06.478Z,-0.11
2023-03-11T04:42:06.426Z,-0.12
2023-03-11T04:43:06.428Z,-0.12
2023-03-11T04:44:06.406Z,-0.13
2023-03-11T04:45:06.379Z,-0.14
2023-03-11T04:46:06.453Z,-0.14
2023-03-11T04:47:06.389Z,-0.15
2023-03-11T04:48:06.405Z,-0.15
2023-03-11T04:49:06.339Z,-0.16
2023-03-11T04:50:06.347Z,-0.17
2023-03-11T04:51:06.317Z,-0.19
2023-03-11T04:52:06.310Z,-0.21
2023-03-11T04:53:06.312Z,-0.22
2023-03-11T04:54:06.288Z,-0.23
2023-03-11T04:55:06.253Z,-0.24
2023-03-11T04:56:06.276Z,-0.25
2023-03-11T04:57:06.232Z,-0.26
2023-03-11T04:58:06.232Z,-0.27
2023-03-11T04:59:06.242Z,-0.29
2023-03-11T05:00:06.207Z,-0.30
2023-03-11T05:01:06.242Z,-0.31
2023-03-11T05:02:06.174Z,-0.32
2023-03-11T05:03:06.168Z,-0.33
2023-03-11T05:04:06.164Z,-0.34
2023-03-11T05:05:06.163Z,-0.35
2023-03-11T05:06:06.131Z,-0.36
2023-03-11T05:07:06.134Z,-0.37
2023-03-11T05:08:06.123Z,-0.38
2023-03-11T05:09:06.085Z,-0.39
2023-03-11T05:10:06.081Z,-0.40
2023-03-11T05:11:06.081Z,-0.40
2023-03-11T05:12:06.055Z,-0.41
2023-03-11T05:13:06.050Z,-0.42
2023-03-11T05:14:06.080Z,-0.43
2023-03-11T05:15:06.023Z,-0.44
2023-03-11T05:16:06.041Z,-0.45
2023-03-11T05:17:06.015Z,-0.46
2023-03-11T05:18:05.992Z,-0.47
2023-03-11T05:19:05.954Z,-0.49
2023-03-11T05:20:05.951Z,-0.50
2023-03-11T05:21:05.941Z,-0.51
2023-03-11T05:22:05.964Z,-0.53
2023-03-11T05:23:05.945Z,-0.54
2023-03-11T05:24:05.903Z,-0.55
2023-03-11T05:25:05.900Z,-0.56
2023-03-11T05:26:05.888Z,-0.57
2023-03-11T05:27:05.884Z,-0.58
2023-03-11T05:28:05.860Z,-0.59
2023-03-11T05:29:05.862Z,-0.60
2023-03-11T05:30:05.836Z,-0.61
2023-03-11T05:31:05.833Z,-0.62
2023-03-11T05:32:05.803Z,-0.62
2023-03-11T05:33:05.785Z,-0.63
2023-03-11T05:34:05.798Z,-0.63
2023-03-11T05:35:05.810Z,-0.63
2023-03-11T05:36:05.809Z,-0.63
2023-03-11T05:37:05.751Z,-0.64
2023-03-11T05:38:05.724Z,-0.64
2023-03-11T05:39:05.712Z,-0.65
2023-03-11T05:40:05.739Z,-0.65
2023-03-11T05:41:05.733Z,-0.66
2023-03-11T05:42:05.685Z,-0.67
2023-03-11T05:43:05.669Z,-0.67
2023-03-11T05:44:05.661Z,-0.68
2023-03-11T05:45:05.694Z,-0.69
2023-03-11T05:46:05.728Z,-0.69
2023-03-11T05:47:05.653Z,-0.70
2023-03-11T05:48:05.621Z,-0.70
2023-03-11T05:49:05.602Z,-0.71
2023-03-11T05:50:05.598Z,-0.71
2023-03-11T05:51:05.586Z,-0.72
2023-03-11T05:52:05.573Z,-0.72
2023-03-11T05:53:05.575Z,-0.73
2023-03-11T05:54:05.539Z,-0.74
2023-03-11T05:55:05.543Z,-0.75
2023-03-11T05:56:05.506Z,-0.75
2023-03-11T05:57:05.515Z,-0.75
2023-03-11T05:58:05.556Z,-0.76
2023-03-11T05:59:05.537Z,-0.76
2023-03-11T06:00:05.501Z,-0.77
2023-03-11T06:01:05.445Z,-0.77
2023-03-11T06:02:05.451Z,-0.78
2023-03-11T06:03:05.442Z,-0.79
2023-03-11T06:04:05.533Z,-0.80
2023-03-11T06:05:08.205Z,-0.80
2023-03-11T06:06:05.375Z,-0.81
2023-03-11T06:07:05.382Z,-0.82
2023-03-11T06:08:05.373Z,-0.82
2023-03-11T06:09:05.365Z,-0.83
2023-03-11T06:10:05.317Z,-0.83
2023-03-11T06:11:05.366Z,-0.83
2023-03-11T06:12:05.314Z,-0.83
2023-03-11T06:13:05.296Z,-0.83
2023-03-11T06:14:05.293Z,-0.83
2023-03-11T06:15:05.278Z,-0.83
2023-03-11T06:16:05.357Z,-0.83
2023-03-11T06:17:05.286Z,-0.83
2023-03-11T06:18:05.279Z,-0.84
2023-03-11T06:19:05.216Z,-0.85
2023-03-11T06:20:05.199Z,-0.85
2023-03-11T06:21:05.196Z,-0.85
2023-03-11T06:22:05.243Z,-0.86
2023-03-11T06:23:05.653Z,-0.88
2023-03-11T06:24:05.196Z,-0.89
2023-03-11T06:25:05.145Z,-0.90
2023-03-11T06:26:05.178Z,-0.91
2023-03-11T06:27:05.121Z,-0.92
2023-03-11T06:28:05.156Z,-0.92
2023-03-11T06:29:05.161Z,-0.92
2023-03-11T06:30:05.105Z,-0.92
2023-03-11T06:31:05.103Z,-0.92
2023-03-11T06:32:05.064Z,-0.91
2023-03-11T06:33:05.043Z,-0.91
2023-03-11T06:34:05.019Z,-0.91
2023-03-11T06:35:05.145Z,-0.91
2023-03-11T06:36:05.078Z,-0.92
2023-03-11T06:37:05.031Z,-0.93
2023-03-11T06:38:04.981Z,-0.93
2023-03-11T06:39:05.006Z,-0.94
2023-03-11T06:40:04.950Z,-0.95
2023-03-11T06:41:05.006Z,-0.96
2023-03-11T06:42:04.918Z,-0.97
2023-03-11T06:43:04.923Z,-0.97
2023-03-11T06:44:04.992Z,-0.97
2023-03-11T06:45:04.896Z,-0.96
2023-03-11T06:46:04.964Z,-0.95
2023-03-11T06:47:04.916Z,-0.94
2023-03-11T06:48:04.856Z,-0.92
2023-03-11T06:49:04.872Z,-0.91
2023-03-11T06:50:04.889Z,-0.90
2023-03-11T06:51:04.847Z,-0.89
2023-03-11T06:52:04.833Z,-0.88
2023-03-11T06:53:04.833Z,-0.87
2023-03-11T06:54:04.796Z,-0.85
2023-03-11T06:55:04.778Z,-0.84
2023-03-11T06:56:04.740Z,-0.83
2023-03-11T06:57:04.734Z,-0.82
2023-03-11T06:58:04.728Z,-0.82
2023-03-11T06:59:04.807Z,-0.81
2023-03-11T07:00:04.685Z,-0.80
2023-03-11T07:01:04.771Z,-0.80
2023-03-11T07:02:05.671Z,-0.81
2023-03-11T07:03:04.662Z,-0.83
2023-03-11T07:04:04.674Z,-0.85
2023-03-11T07:05:04.671Z,-0.86
2023-03-11T07:06:06.644Z,-0.87
2023-03-11T07:07:04.616Z,-0.86
2023-03-11T07:08:04.619Z,-0.87
2023-03-11T07:09:04.595Z,-0.88
2023-03-11T07:10:04.582Z,-0.89
2023-03-11T07:11:04.613Z,-0.89
2023-03-11T07:12:06.655Z,-0.86
2023-03-11T07:13:04.584Z,-0.81
2023-03-11T07:14:04.526Z,-0.76
2023-03-11T07:15:04.598Z,-0.71
2023-03-11T07:16:04.525Z,-0.67
2023-03-11T07:17:04.532Z,-0.62
2023-03-11T07:18:04.490Z,-0.58
2023-03-11T07:19:04.460Z,-0.56
2023-03-11T07:20:04.442Z,-0.57
2023-03-11T07:21:04.444Z,-0.57
2023-03-11T07:22:04.433Z,-0.55
2023-03-11T07:23:04.470Z,-0.52
2023-03-11T07:24:04.444Z,-0.50
2023-03-11T07:25:04.400Z,-0.46
2023-03-11T07:26:04.375Z,-0.42
2023-03-11T07:27:04.370Z,-0.36
2023-03-11T07:28:04.340Z,-0.28
2023-03-11T07:29:04.402Z,-0.21
2023-03-11T07:30:04.326Z,-0.16
2023-03-11T07:31:04.309Z,-0.12
2023-03-11T07:32:04.452Z,-0.10
2023-03-11T07:33:04.282Z,-0.08
2023-03-11T07:34:04.370Z,-0.06
2023-03-11T07:35:04.308Z,-0.03
2023-03-11T07:36:04.314Z,-0.01
2023-03-11T07:37:04.244Z,0.00
2023-03-11T07:38:04.222Z,0.01
2023-03-11T07:39:04.555Z,0.01
2023-03-11T07:40:04.200Z,0.01
2023-03-11T07:41:04.215Z,-0.01
2023-03-11T07:42:04.228Z,-0.05
2023-03-11T07:43:04.186Z,-0.09
2023-03-11T07:44:04.178Z,-0.13
2023-03-11T07:45:04.137Z,-0.16
2023-03-11T07:46:04.124Z,-0.21
2023-03-11T07:47:04.151Z,-0.26
2023-03-11T07:48:04.266Z,-0.28
2023-03-11T07:49:04.084Z,-0.29
2023-03-11T07:50:04.088Z,-0.28
2023-03-11T07:51:04.046Z,-0.25
2023-03-11T07:52:04.053Z,-0.22
2023-03-11T07:53:04.080Z,-0.20
2023-03-11T07:54:04.043Z,-0.18
2023-03-11T07:55:04.034Z,-0.17
2023-03-11T07:56:04.007Z,-0.15
2023-03-11T07:57:03.988Z,-0.15
2023-03-11T07:58:03.970Z,-0.14
2023-03-11T07:59:04.045Z,-0.14
2023-03-11T08:00:03.987Z,-0.15
2023-03-11T08:01:03.922Z,-0.13
2023-03-11T08:02:03.982Z,-0.09
2023-03-11T08:03:03.904Z,-0.03
2023-03-11T08:04:03.903Z,0.03
2023-03-11T08:05:03.919Z,0.09
2023-03-11T08:06:03.861Z,0.12
2023-03-11T08:07:03.852Z,0.12
2023-03-11T08:08:03.854Z,0.10
2023-03-11T08:09:03.895Z,0.06
2023-03-11T08:10:03.824Z,0.03
2023-03-11T08:11:03.876Z,0.01
2023-03-11T08:12:03.804Z,0.00
2023-03-11T08:13:03.806Z,-0.04
2023-03-11T08:14:03.786Z,-0.10
2023-03-11T08:15:03.774Z,-0.15
2023-03-11T08:16:03.831Z,-0.20
2023-03-11T08:17:03.783Z,-0.26
2023-03-11T08:18:03.727Z,-0.31
2023-03-11T08:19:03.744Z,-0.31
2023-03-11T08:20:03.708Z,-0.26
2023-03-11T08:21:03.684Z,-0.20
2023-03-11T08:22:03.832Z,-0.12
2023-03-11T08:23:03.688Z,-0.03
2023-03-11T08:24:06.154Z,0.05
2023-03-11T08:25:03.628Z,0.09
2023-03-11T08:26:03.630Z,0.10
2023-03-11T08:27:03.605Z,0.11
2023-03-11T08:28:03.603Z,0.12
2023-03-11T08:29:03.641Z,0.13
2023-03-11T08:30:03.600Z,0.12
2023-03-11T08:31:03.616Z,0.09
2023-03-11T08:32:03.542Z,0.05
2023-03-11T08:33:03.726Z,0.04
2023-03-11T08:34:03.524Z,0.06
2023-03-11T08:35:03.603Z,0.09
2023-03-11T08:36:03.619Z,0.13
2023-03-11T08:37:03.480Z,0.17
2023-03-11T08:38:03.461Z,0.20
2023-03-11T08:39:03.594Z,0.25
2023-03-11T08:40:03.475Z,0.30
2023-03-11T08:41:03.435Z,0.33
2023-03-11T08:42:03.421Z,0.38
2023-03-11T08:43:03.409Z,0.48
2023-03-11T08:44:03.381Z,0.61
2023-03-11T08:45:03.411Z,0.71
2023-03-11T08:46:03.397Z,0.75
2023-03-11T08:47:03.391Z,0.76
2023-03-11T08:48:03.647Z,0.76
2023-03-11T08:49:03.330Z,0.76
2023-03-11T08:50:03.301Z,0.72
2023-03-11T08:51:03.320Z,0.65
2023-03-11T08:52:03.289Z,0.56
2023-03-11T08:53:03.322Z,0.48
2023-03-11T08:54:03.268Z,0.45
2023-03-11T08:55:03.289Z,0.48
2023-03-11T08:56:03.238Z,0.54
2023-03-11T08:57:03.214Z,0.64
2023-03-11T08:58:03.190Z,0.70
2023-03-11T08:59:03.253Z,0.66
2023-03-11T09:00:03.172Z,0.62
2023-03-11T09:01:03.179Z,0.59
2023-03-11T09:02:03.178Z,0.59
2023-03-11T09:03:03.158Z,0.69
2023-03-11T09:04:03.122Z,0.85
2023-03-11T09:05:03.167Z,1.07
2023-03-11T09:06:03.172Z,1.32
2023-03-11T09:07:03.087Z,1.56
2023-03-11T09:08:05.260Z,1.74
2023-03-11T09:09:03.060Z,1.83
2023-03-11T09:10:03.056Z,1.89
2023-03-11T09:11:03.093Z,2.01
2023-03-11T09:12:03.027Z,2.09
2023-03-11T09:13:03.004Z,2.17
2023-03-11T09:14:03.003Z,2.28
2023-03-11T09:15:03.043Z,2.35
2023-03-11T09:16:03.005Z,2.38
2023-03-11T09:17:02.982Z,2.41
2023-03-11T09:18:02.937Z,2.46
2023-03-11T09:19:02.969Z,2.56
2023-03-11T09:20:02.930Z,2.63
2023-03-11T09:21:02.928Z,2.63
2023-03-11T09:22:02.901Z,2.55
2023-03-11T09:23:02.919Z,2.39
2023-03-11T09:24:02.875Z,2.24
2023-03-11T09:25:02.877Z,2.22
2023-03-11T09:26:02.844Z,2.33
2023-03-11T09:27:02.842Z,2.45
2023-03-11T09:28:02.828Z,2.56
2023-03-11T09:29:02.837Z,2.68
2023-03-11T09:30:02.802Z,2.87
2023-03-11T09:31:02.888Z,3.09
2023-03-11T09:32:02.773Z,3.37
2023-03-11T09:33:02.754Z,3.71
2023-03-11T09:34:02.744Z,4.07
2023-03-11T09:35:02.782Z,4.52
2023-03-11T09:36:02.748Z,5.13
2023-03-11T09:37:02.710Z,5.69
2023-03-11T09:38:02.705Z,6.19
2023-03-11T09:39:02.675Z,6.82
2023-03-11T09:40:02.656Z,7.47
2023-03-11T09:41:02.697Z,7.94
2023-03-11T09:42:02.645Z,8.05
2023-03-11T09:43:02.679Z,8.04
2023-03-11T09:44:02.639Z,8.38
2023-03-11T09:45:02.627Z,8.80
2023-03-11T09:46:02.594Z,8.97
2023-03-11T09:47:02.700Z,8.92
2023-03-11T09:48:02.561Z,8.70
2023-03-11T09:49:06.009Z,8.41
2023-03-11T09:50:02.532Z,8.36
2023-03-11T09:51:02.535Z,8.63
2023-03-11T09:52:02.522Z,9.18
2023-03-11T09:53:02.538Z,9.73
2023-03-11T09:54:02.477Z,10.08
2023-03-11T09:55:02.478Z,10.46
2023-03-11T09:56:02.478Z,10.95
2023-03-11T09:57:02.442Z,11.36
2023-03-11T09:58:02.439Z,11.59
2023-03-11T09:59:02.461Z,11.61
2023-03-11T10:00:02.406Z,11.15
2023-03-11T10:01:02.407Z,10.64
2023-03-11T10:02:02.432Z,10.59
2023-03-11T10:03:02.457Z,10.87
2023-03-11T10:04:02.353Z,11.19
2023-03-11T10:05:02.372Z,11.47
2023-03-11T10:06:02.344Z,11.63
2023-03-11T10:07:02.333Z,11.77
2023-03-11T10:08:02.365Z,12.05
2023-03-11T10:09:02.495Z,12.38
2023-03-11T10:10:02.286Z,12.70
2023-03-11T10:11:02.321Z,12.72
2023-03-11T10:12:02.900Z,12.33
2023-03-11T10:13:02.251Z,11.73
2023-03-11T10:14:02.238Z,11.24
2023-03-11T10:15:02.222Z,11.23
2023-03-11T10:16:02.277Z,11.65
2023-03-11T10:17:02.232Z,12.08
2023-03-11T10:18:02.192Z,12.54
2023-03-11T10:19:02.202Z,13.16
2023-03-11T10:20:02.210Z,13.69
2023-03-11T10:21:02.157Z,14.03
2023-03-11T10:22:02.180Z,13.65
2023-03-11T10:23:02.163Z,12.96
2023-03-11T10:24:02.109Z,12.61
2023-03-11T10:25:02.103Z,12.50
2023-03-11T10:26:02.097Z,12.61
2023-03-11T10:27:02.093Z,12.97
2023-03-11T10:28:02.076Z,13.40
2023-03-11T10:29:02.133Z,13.34
2023-03-11T10:30:02.085Z,13.17
2023-03-11T10:31:02.042Z,13.35
2023-03-11T10:32:02.146Z,13.52
2023-03-11T10:33:02.014Z,13.65
2023-03-11T10:34:01.991Z,13.39
2023-03-11T10:35:02.012Z,12.88
2023-03-11T10:36:01.980Z,12.57
2023-03-11T10:37:01.954Z,12.35
2023-03-11T10:38:01.985Z,12.14
2023-03-11T10:39:01.931Z,12.03
2023-03-11T10:40:01.935Z,11.85
2023-03-11T10:41:01.950Z,11.60
2023-03-11T10:42:01.887Z,11.48
2023-03-11T10:43:01.896Z,11.49
2023-03-11T10:44:01.870Z,11.08
2023-03-11T10:45:01.876Z,10.46
2023-03-11T10:46:01.881Z,10.35
2023-03-11T10:47:01.863Z,10.77
2023-03-11T10:48:01.837Z,11.33
2023-03-11T10:49:01.806Z,11.87
2023-03-11T10:50:01.818Z,12.51
2023-03-11T10:51:01.816Z,13.27
2023-03-11T10:52:01.806Z,13.94
2023-03-11T10:53:01.798Z,14.47
2023-03-11T10:54:01.833Z,14.77
2023-03-11T10:55:01.737Z,15.01
2023-03-11T10:56:01.745Z,15.20
2023-03-11T10:57:01.740Z,15.24
2023-03-11T10:58:01.700Z,14.96
2023-03-11T10:59:01.754Z,14.55
2023-03-11T11:00:01.680Z,13.94
2023-03-11T11:01:01.776Z,13.25
2023-03-11T11:02:01.668Z,12.98
2023-03-11T11:03:01.649Z,12.89
2023-03-11T11:04:01.705Z,12.65
2023-03-11T11:05:01.645Z,12.65
2023-03-11T11:06:01.604Z,12.84
2023-03-11T11:07:01.612Z,13.06
2023-03-11T11:08:01.591Z,13.33
2023-03-11T11:09:01.568Z,13.42
2023-03-11T11:10:01.580Z,13.26
2023-03-11T11:11:01.610Z,12.83
2023-03-11T11:12:01.595Z,12.31
2023-03-11T11:13:01.536Z,11.87
2023-03-11T11:14:01.511Z,11.57
2023-03-11T11:15:01.510Z,11.27
2023-03-11T11:16:01.547Z,11.11
2023-03-11T11:17:01.594Z,10.99
2023-03-11T11:18:01.477Z,10.96
2023-03-11T11:19:01.464Z,11.13
2023-03-11T11:20:01.451Z,11.25
2023-03-11T11:21:01.433Z,11.03
2023-03-11T11:22:01.425Z,10.74
2023-03-11T11:23:01.450Z,10.51
2023-03-11T11:24:01.396Z,10.33
2023-03-11T11:25:01.417Z,10.26
2023-03-11T11:26:01.372Z,10.40
2023-03-11T11:27:01.381Z,10.51
2023-03-11T11:28:01.338Z,10.47
2023-03-11T11:29:01.371Z,10.64
2023-03-11T11:30:01.325Z,11.02
2023-03-11T11:31:01.371Z,11.27
2023-03-11T11:32:01.315Z,11.38
2023-03-11T11:33:01.299Z,11.48
2023-03-11T11:34:01.285Z,11.45
2023-03-11T11:35:01.309Z,11.19
2023-03-11T11:36:01.311Z,10.81
2023-03-11T11:37:01.264Z,10.40
2023-03-11T11:38:01.219Z,9.75
2023-03-11T11:39:01.204Z,8.92
2023-03-11T11:40:01.202Z,8.18
2023-03-11T11:41:01.232Z,7.62
2023-03-11T11:42:01.187Z,7.30
2023-03-11T11:43:01.157Z,7.50
2023-03-11T11:44:01.144Z,8.10
2023-03-11T11:45:01.132Z,8.95
2023-03-11T11:46:01.231Z,9.82
2023-03-11T11:47:01.141Z,10.58
2023-03-11T11:48:01.104Z,10.88
2023-03-11T11:49:01.076Z,11.05
2023-03-11T11:50:01.092Z,11.25
2023-03-11T11:51:01.058Z,11.32
2023-03-11T11:52:01.070Z,11.35
2023-03-11T11:53:01.058Z,11.34
2023-03-11T11:54:01.023Z,11.10
2023-03-11T11:55:01.010Z,10.66
2023-03-11T11:56:01.010Z,10.25
2023-03-11T11:57:01.009Z,9.91
2023-03-11T11:58:00.970Z,9.80
2023-03-11T11:59:01.001Z,9.91
2023-03-11T12:00:00.973Z,10.02
2023-03-11T12:01:00.946Z,10.02
2023-03-11T12:02:00.940Z,10.11
2023-03-11T12:03:00.911Z,10.34
2023-03-11T12:04:00.983Z,10.43
2023-03-11T12:05:00.929Z,10.30
2023-03-11T12:06:00.950Z,10.13
2023-03-11T12:07:00.872Z,9.94
2023-03-11T12:08:00.846Z,9.77
2023-03-11T12:09:00.838Z,9.48
2023-03-11T12:10:10.089Z,9.24
2023-03-11T12:11:00.867Z,8.86
2023-03-11T12:12:00.843Z,8.08
2023-03-11T12:13:00.831Z,7.35
2023-03-11T12:14:00.807Z,6.89
2023-03-11T12:15:00.767Z,6.61
2023-03-11T12:16:00.803Z,6.55
2023-03-11T12:17:02.611Z,6.81
2023-03-11T12:18:00.762Z,7.24
2023-03-11T12:19:00.714Z,7.59
2023-03-11T12:20:00.702Z,7.91
2023-03-11T12:21:00.714Z,8.21
2023-03-11T12:22:00.705Z,8.45
2023-03-11T12:23:00.704Z,8.56
2023-03-11T12:24:00.654Z,8.60
2023-03-11T12:25:00.783Z,8.60
2023-03-11T12:26:00.636Z,8.57
2023-03-11T12:27:00.639Z,8.64
2023-03-11T12:28:00.612Z,8.75
2023-03-11T12:29:00.631Z,8.91
2023-03-11T12:30:00.606Z,9.00
2023-03-11T12:31:00.627Z,8.93
2023-03-11T12:32:00.548Z,8.75
2023-03-11T12:33:00.552Z,8.36
2023-03-11T12:34:00.542Z,7.88
2023-03-11T12:35:00.552Z,7.47
2023-03-11T12:36:00.659Z,7.06
2023-03-11T12:37:00.490Z,6.62
2023-03-11T12:38:00.486Z,6.21
2023-03-11T12:39:00.469Z,5.87
2023-03-11T12:40:00.479Z,5.55
2023-03-11T12:41:00.500Z,5.29
2023-03-11T12:42:00.459Z,5.10
2023-03-11T12:43:00.424Z,4.96
2023-03-11T12:44:00.491Z,4.90
2023-03-11T12:45:00.401Z,4.89
2023-03-11T12:46:00.472Z,4.88
2023-03-11T12:47:00.565Z,4.80
2023-03-11T12:48:00.384Z,4.69
2023-03-11T12:49:00.344Z,4.69
2023-03-11T12:50:00.319Z,4.73
2023-03-11T12:51:00.322Z,4.72
2023-03-11T12:52:01.163Z,4.66
2023-03-11T12:53:00.314Z,4.61
2023-03-11T12:54:00.284Z,4.59
2023-03-11T12:55:00.259Z,4.60
2023-03-11T12:56:00.244Z,4.62
2023-03-11T12:57:00.250Z,4.58
2023-03-11T12:58:00.246Z,4.47
2023-03-11T12:59:00.252Z,4.36
2023-03-11T13:00:00.216Z,4.30
2023-03-11T13:01:00.186Z,4.23
2023-03-11T13:02:00.301Z,4.19
2023-03-11T13:03:00.216Z,4.21
2023-03-11T13:04:00.191Z,4.25
2023-03-11T13:05:00.186Z,4.28
2023-03-11T13:06:00.182Z,4.31
2023-03-11T13:07:00.175Z,4.37